createdAt,value
2018-05-03T00:00:07.705Z,71.58
2018-05-03T00:01:17.787Z,71.58
2018-05-03T00:02:27.861Z,71.96
2018-05-03T00:03:37.963Z,71.39
2018-05-03T00:04:48.096Z,71.96
2018-05-03T00:05:58.176Z,71.93
2018-05-03T00:07:07.987Z,71.58
2018-05-03T00:08:18.069Z,71.39
2018-05-03T00:09:27.682Z,71.67
2018-05-03T00:10:37.781Z,71.87
2018-05-03T00:11:47.849Z,71.87
2018-05-03T00:12:57.942Z,71.87
2018-05-03T00:14:08.049Z,71.39
2018-05-03T00:15:18.138Z,71.39
2018-05-03T00:16:28.262Z,71.39
2018-05-03T00:17:38.353Z,71.39
2018-05-03T00:18:48.447Z,71.48
2018-05-03T00:19:58.267Z,71.67
2018-05-03T00:21:08.338Z,71.77
2018-05-03T00:22:18.467Z,71.67
2018-05-03T00:23:28.559Z,71.58
2018-05-03T00:24:38.644Z,71.67
2018-05-03T00:25:48.748Z,71.67
2018-05-03T00:26:58.859Z,71.48
2018-05-03T00:28:08.957Z,71.35
2018-05-03T00:29:19.073Z,71.64
2018-05-03T00:30:29.157Z,71.25
2018-05-03T00:31:38.988Z,71.55
2018-05-03T00:32:49.069Z,71.55
2018-05-03T00:33:59.200Z,71.55
2018-05-03T00:35:09.284Z,71.35
2018-05-03T00:36:19.365Z,71.45
2018-05-03T00:37:29.204Z,71.35
2018-05-03T00:38:39.293Z,71.64
2018-05-03T00:39:49.394Z,71.83
2018-05-03T00:40:59.234Z,71.73
2018-05-03T00:42:09.325Z,71.64
2018-05-03T00:43:19.385Z,71.64
2018-05-03T00:44:29.462Z,71.73
2018-05-03T00:45:39.332Z,71.83
2018-05-03T00:46:49.150Z,71.64
2018-05-03T00:47:59.232Z,71.73
2018-05-03T00:49:09.309Z,71.45
2018-05-03T00:50:19.154Z,71.35
2018-05-03T00:51:29.233Z,71.45
2018-05-03T00:52:39.341Z,71.93
2018-05-03T00:53:49.446Z,71.83
2018-05-03T00:54:59.531Z,71.64
2018-05-03T00:56:09.609Z,71.89
2018-05-03T00:57:19.741Z,71.93
2018-05-03T00:58:29.806Z,71.89
2018-05-03T00:59:39.608Z,71.61
2018-05-03T01:00:49.421Z,71.8
2018-05-03T01:01:59.501Z,71.51
2018-05-03T01:03:09.640Z,71.41
2018-05-03T01:04:19.735Z,71.41
2018-05-03T01:05:29.824Z,71.51
2018-05-03T01:06:39.923Z,71.51
2018-05-03T01:07:50.020Z,71.51
2018-05-03T01:09:00.102Z,71.22
2018-05-03T01:10:09.925Z,71.61
2018-05-03T01:11:20.017Z,72.18
2018-05-03T01:12:30.107Z,71.98
2018-05-03T01:13:40.194Z,71.31
2018-05-03T01:14:50.050Z,71.31
2018-05-03T01:15:59.871Z,71.31
2018-05-03T01:17:09.686Z,71.31
2018-05-03T01:18:19.757Z,71.7
2018-05-03T01:19:29.841Z,71.7
2018-05-03T01:20:39.999Z,71.61
2018-05-03T01:21:50.076Z,71.41
2018-05-03T01:23:00.163Z,71.41
2018-05-03T01:24:10.343Z,71.61
2018-05-03T01:25:20.408Z,71.51
2018-05-03T01:26:30.500Z,71.51
2018-05-03T01:27:40.308Z,71.61
2018-05-03T01:28:50.388Z,71.61
2018-05-03T01:30:00.469Z,71.7
2018-05-03T01:31:10.557Z,71.61
2018-05-03T01:32:20.629Z,71.7
2018-05-03T01:33:30.712Z,71.61
2018-05-03T01:34:40.809Z,71.61
2018-05-03T01:35:50.895Z,71.7
2018-05-03T01:37:00.987Z,71.61
2018-05-03T01:38:11.071Z,71.61
2018-05-03T01:39:21.146Z,71.31
2018-05-03T01:40:30.986Z,71.41
2018-05-03T01:41:41.067Z,71.31
2018-05-03T01:42:51.149Z,71.89
2018-05-03T01:44:00.971Z,71.31
2018-05-03T01:45:11.059Z,71.51
2018-05-03T01:46:22.211Z,71.41
2018-05-03T01:47:32.404Z,71.7
2018-05-03T01:48:42.483Z,71.31
2018-05-03T01:49:52.343Z,71.28
2018-05-03T01:51:02.434Z,71.28
2018-05-03T01:52:12.243Z,71.37
2018-05-03T01:53:22.351Z,71.31
2018-05-03T01:54:32.174Z,71.28
2018-05-03T01:55:42.256Z,71.28
2018-05-03T01:56:52.327Z,71.61
2018-05-03T01:58:02.139Z,71.31
2018-05-03T01:59:12.244Z,71.57
2018-05-03T02:00:22.325Z,71.66
2018-05-03T02:01:32.170Z,71.66
2018-05-03T02:02:42.257Z,71.57
2018-05-03T02:03:52.085Z,71.76
2018-05-03T02:05:02.155Z,71.66
2018-05-03T02:06:12.093Z,71.37
2018-05-03T02:07:22.108Z,71.66
2018-05-03T02:08:32.206Z,71.66
2018-05-03T02:09:42.312Z,71.76
2018-05-03T02:10:52.417Z,71.28
2018-05-03T02:12:02.489Z,71.57
2018-05-03T02:13:12.574Z,71.66
2018-05-03T02:14:22.644Z,71.41
2018-05-03T02:15:32.724Z,71.57
2018-05-03T02:16:42.802Z,71.7
2018-05-03T02:17:52.849Z,71.8
2018-05-03T02:19:02.729Z,71.51
2018-05-03T02:20:12.808Z,71.51
2018-05-03T02:21:22.910Z,71.47
2018-05-03T02:22:32.990Z,71.7
2018-05-03T02:23:43.072Z,71.86
2018-05-03T02:24:53.167Z,71.86
2018-05-03T02:26:03.251Z,71.61
2018-05-03T02:27:13.337Z,71.51
2018-05-03T02:28:23.429Z,71.66
2018-05-03T02:29:32.982Z,71.47
2018-05-03T02:30:43.054Z,71.19
2018-05-03T02:31:52.873Z,71.37
2018-05-03T02:33:02.948Z,71.28
2018-05-03T02:34:13.029Z,71.37
2018-05-03T02:35:23.125Z,71.28
2018-05-03T02:36:33.226Z,71.28
2018-05-03T02:37:43.313Z,71.76
2018-05-03T02:38:53.401Z,71.37
2018-05-03T02:40:03.495Z,71.28
2018-05-03T02:41:13.596Z,71.28
2018-05-03T02:42:23.748Z,71.66
2018-05-03T02:43:33.842Z,71.47
2018-05-03T02:44:43.920Z,71.89
2018-05-03T02:45:54.028Z,71.76
2018-05-03T02:47:04.125Z,71.47
2018-05-03T02:48:14.254Z,71.61
2018-05-03T02:49:24.353Z,71.51
2018-05-03T02:50:34.431Z,71.51
2018-05-03T02:51:44.525Z,71.51
2018-05-03T02:52:54.622Z,71.61
2018-05-03T02:54:04.739Z,71.51
2018-05-03T02:55:14.849Z,71.31
2018-05-03T02:56:24.956Z,71.41
2018-05-03T02:57:34.779Z,71.8
2018-05-03T02:58:44.608Z,71.89
2018-05-03T02:59:54.692Z,71.7
2018-05-03T03:01:04.791Z,71.61
2018-05-03T03:02:14.914Z,71.61
2018-05-03T03:34:13.117Z,69.15
2018-05-03T03:35:23.212Z,69.54
2018-05-03T03:36:32.997Z,70.11
2018-05-03T03:37:43.073Z,70.5
2018-05-03T03:38:53.142Z,71.45
2018-05-03T03:40:03.256Z,71.07
2018-05-03T03:41:13.347Z,71.93
2018-05-03T03:42:23.426Z,72.22
2018-05-03T03:43:33.240Z,72.25
2018-05-03T03:44:43.316Z,71.97
2018-05-03T03:45:53.135Z,72.54
2018-05-03T03:47:03.206Z,72.38
2018-05-03T03:48:13.284Z,72.29
2018-05-03T03:49:23.342Z,72.48
2018-05-03T03:50:33.156Z,72.29
2018-05-03T03:51:42.754Z,72.42
2018-05-03T03:52:52.825Z,72.23
2018-05-03T03:54:02.628Z,72.32
2018-05-03T03:55:12.442Z,72.23
2018-05-03T03:56:22.495Z,72.55
2018-05-03T03:57:32.296Z,72.45
2018-05-03T03:58:42.118Z,72.36
2018-05-03T03:59:52.203Z,72.07
2018-05-03T04:01:02.273Z,71.69
2018-05-03T04:02:12.339Z,72.01
2018-05-03T04:03:22.475Z,71.92
2018-05-03T04:04:32.286Z,72.01
2018-05-03T04:05:42.098Z,72.3
2018-05-03T04:06:52.180Z,71.82
2018-05-03T04:08:02.002Z,71.19
2018-05-03T04:09:12.083Z,71.37
2018-05-03T04:10:22.177Z,71.47
2018-05-03T04:11:32.265Z,71.95
2018-05-03T04:12:42.359Z,71.47
2018-05-03T04:13:52.431Z,71.57
2018-05-03T04:15:02.527Z,71.57
2018-05-03T04:16:12.597Z,71.51
2018-05-03T04:17:22.671Z,71.89
2018-05-03T04:18:32.736Z,71.41
2018-05-03T04:19:42.813Z,71.41
2018-05-03T04:20:52.671Z,71.41
2018-05-03T04:22:02.485Z,71.41
2018-05-03T04:23:12.740Z,71.12
2018-05-03T04:24:22.815Z,71.41
2018-05-03T04:25:32.889Z,71.16
2018-05-03T04:26:43.044Z,71.16
2018-05-03T04:27:52.865Z,70.78
2018-05-03T04:29:02.416Z,70.68
2018-05-03T04:30:12.274Z,70.62
2018-05-03T04:31:22.368Z,70.62
2018-05-03T04:32:32.533Z,70.62
2018-05-03T04:33:42.344Z,70.72
2018-05-03T04:34:51.902Z,70.65
2018-05-03T04:36:02.005Z,70.75
2018-05-03T04:37:11.804Z,70.46
2018-05-03T04:38:21.351Z,70.78
2018-05-03T04:39:31.172Z,70.4
2018-05-03T04:40:41.234Z,70.21
2018-05-03T04:41:51.311Z,70.24
2018-05-03T04:43:01.124Z,69.85
2018-05-03T04:44:10.996Z,68.74
2018-05-03T04:45:20.828Z,67.36
2018-05-03T04:46:30.918Z,67.2
2018-05-03T04:47:40.980Z,66.3
2018-05-03T04:48:51.047Z,66.14
2018-05-03T04:50:01.130Z,66.17
2018-05-03T04:51:11.195Z,66.4
2018-05-03T04:52:21.015Z,66.43
2018-05-03T04:53:31.093Z,66.33
2018-05-03T04:54:41.167Z,66.37
2018-05-03T04:55:50.973Z,66.88
2018-05-03T04:57:01.075Z,67.08
2018-05-03T04:58:11.149Z,67.08
2018-05-03T04:59:21.244Z,67.5
2018-05-03T05:00:31.077Z,67.5
2018-05-03T05:01:40.947Z,67.21
2018-05-03T05:02:50.777Z,67.5
2018-05-03T05:04:00.860Z,68.12
2018-05-03T05:05:10.682Z,67.92
2018-05-03T05:06:20.774Z,67.92
2018-05-03T05:07:30.869Z,68.24
2018-05-03T05:08:40.953Z,67.76
2018-05-03T05:09:51.039Z,68.05
2018-05-03T05:11:01.143Z,67.89
2018-05-03T05:12:11.244Z,68.08
2018-05-03T05:13:21.067Z,68.28
2018-05-03T05:14:30.899Z,68.08
2018-05-03T05:15:40.984Z,68.21
2018-05-03T05:16:51.165Z,68.21
2018-05-03T05:18:01.497Z,68.12
2018-05-03T05:19:11.611Z,68.02
2018-05-03T05:20:21.709Z,68.02
2018-05-03T05:21:31.835Z,67.92
2018-05-03T05:22:41.631Z,68.21
2018-05-03T05:23:51.701Z,68.89
2018-05-03T05:25:01.528Z,68.02
2018-05-03T05:26:11.632Z,68.63
2018-05-03T05:27:21.764Z,68.25
2018-05-03T05:28:31.853Z,68.83
2018-05-03T05:29:41.933Z,68.83
2018-05-03T05:30:52.214Z,68.83
2018-05-03T05:32:02.320Z,68.73
2018-05-03T05:33:12.402Z,68.87
2018-05-03T05:34:22.529Z,68.96
2018-05-03T05:35:32.338Z,68.67
2018-05-03T05:36:42.177Z,68.77
2018-05-03T05:37:52.248Z,69.35
2018-05-03T05:39:02.555Z,69.02
2018-05-03T05:40:12.670Z,69.12
2018-05-03T05:41:22.771Z,69.25
2018-05-03T05:42:32.861Z,69.45
2018-05-03T05:43:42.974Z,69.15
2018-05-03T05:44:53.128Z,69.25
2018-05-03T05:46:03.216Z,69.19
2018-05-03T05:47:13.351Z,69.35
2018-05-03T05:48:23.191Z,69.74
2018-05-03T05:49:33.286Z,69.45
2018-05-03T05:50:43.103Z,69.74
2018-05-03T05:51:53.210Z,70.42
2018-05-03T05:53:03.307Z,70.32
2018-05-03T05:54:13.414Z,70.29
2018-05-03T05:55:23.611Z,71.06
2018-05-03T05:56:33.713Z,72.06
2018-05-03T05:57:44.063Z,72.35
2018-05-03T05:58:54.142Z,72.22
2018-05-03T06:00:04.244Z,72.41
2018-05-03T06:01:14.405Z,72.47
2018-05-03T06:02:24.508Z,73.02
2018-05-03T06:03:34.663Z,72.44
2018-05-03T06:04:44.758Z,72.53
2018-05-03T06:05:54.308Z,72.34
2018-05-03T06:07:04.396Z,72.53
2018-05-03T06:08:14.549Z,71.92
2018-05-03T06:09:24.626Z,72.21
2018-05-03T06:10:34.718Z,71.92
2018-05-03T06:11:44.802Z,72.21
2018-05-03T06:12:54.892Z,71.92
2018-05-03T06:14:05.029Z,71.62
2018-05-03T06:15:15.135Z,71.04
2018-05-03T06:16:25.234Z,71.24
2018-05-03T06:17:35.381Z,71.53
2018-05-03T06:18:46.018Z,71.53
2018-05-03T06:19:58.311Z,71.14
2018-05-03T06:21:10.037Z,71.44
2018-05-03T06:22:20.745Z,71.24
2018-05-03T06:23:31.082Z,70.76
2018-05-03T06:24:41.162Z,71.24
2018-05-03T06:25:51.352Z,71.04
2018-05-03T06:27:01.348Z,70.76
2018-05-03T06:28:11.183Z,70.47
2018-05-03T06:29:21.534Z,70.47
2018-05-03T06:30:31.915Z,70.5
2018-05-03T06:31:43.020Z,70.95
2018-05-03T06:32:53.896Z,71.04
2018-05-03T06:34:04.751Z,71.44
2018-05-03T06:35:16.080Z,71.24
2018-05-03T06:36:26.993Z,71.14
2018-05-03T06:37:37.149Z,71.53
2018-05-03T06:38:47.347Z,71.53
2018-05-03T06:39:57.646Z,70.86
2018-05-03T06:41:07.741Z,71.44
2018-05-03T06:42:18.070Z,71.04
2018-05-03T06:43:28.242Z,70.56
2018-05-03T06:44:38.356Z,70.86
2018-05-03T06:45:48.474Z,70.5
2018-05-03T06:46:58.577Z,70.98
2018-05-03T06:48:08.394Z,70.7
2018-05-03T06:49:18.531Z,70.6
2018-05-03T06:50:28.658Z,70.98
2018-05-03T06:51:38.828Z,70.79
2018-05-03T06:52:48.672Z,70.79
2018-05-03T06:53:58.757Z,70.89
2018-05-03T06:55:08.850Z,70.7
2018-05-03T06:56:18.938Z,70.7
2018-05-03T06:57:29.042Z,70.79
2018-05-03T06:58:39.253Z,70.79
2018-05-03T06:59:49.439Z,70.7
2018-05-03T07:00:59.548Z,70.7
2018-05-03T07:02:09.662Z,70.98
2018-05-03T07:03:19.766Z,70.89
2018-05-03T07:04:29.997Z,70.6
2018-05-03T07:05:39.844Z,70.92
2018-05-03T07:06:49.671Z,70.7
2018-05-03T07:07:59.511Z,70.54
2018-05-03T07:09:09.329Z,70.7
2018-05-03T07:10:19.412Z,71.02
2018-05-03T07:11:29.239Z,71.02
2018-05-03T07:12:39.646Z,71.02
2018-05-03T07:13:49.755Z,70.83
2018-05-03T07:14:59.844Z,70.63
2018-05-03T07:16:09.951Z,70.63
2018-05-03T07:17:20.216Z,70.83
2018-05-03T07:18:30.347Z,70.86
2018-05-03T07:19:40.445Z,70.67
2018-05-03T07:20:50.285Z,70.67
2018-05-03T07:21:59.857Z,70.67
2018-05-03T07:23:09.715Z,70.47
2018-05-03T07:24:19.808Z,70.18
2018-05-03T07:25:29.902Z,70.47
2018-05-03T07:26:39.731Z,70.51
2018-05-03T07:27:49.841Z,70.51
2018-05-03T07:28:59.924Z,70.61
2018-05-03T07:30:09.800Z,70.51
2018-05-03T07:31:19.922Z,70.31
2018-05-03T07:32:30.031Z,70.7
2018-05-03T07:33:40.140Z,70.41
2018-05-03T07:34:50.348Z,70.61
2018-05-03T07:36:00.335Z,70.35
2018-05-03T07:37:10.437Z,70.35
2018-05-03T07:38:20.256Z,70.45
2018-05-03T07:39:30.357Z,70.35
2018-05-03T07:40:40.286Z,70.25
2018-05-03T07:41:50.866Z,70.57
2018-05-03T07:43:00.969Z,70
2018-05-03T07:44:10.792Z,70
2018-05-03T07:45:20.612Z,69.9
2018-05-03T07:46:29.924Z,69.9
2018-05-03T07:47:40.067Z,70.03
2018-05-03T07:48:50.145Z,70.42
2018-05-03T07:50:00.219Z,70
2018-05-03T07:51:10.322Z,70.42
2018-05-03T07:52:20.394Z,70.32
2018-05-03T07:53:30.312Z,70.12
2018-05-03T07:54:40.142Z,70.03
2018-05-03T07:55:50.263Z,70.03
2018-05-03T07:57:00.117Z,70.06
2018-05-03T07:58:10.197Z,70.26
2018-05-03T07:59:20.560Z,70.26
2018-05-03T08:00:30.674Z,70.06
2018-05-03T08:01:40.289Z,70.36
2018-05-03T08:02:49.852Z,70.16
2018-05-03T08:03:59.952Z,70.16
2018-05-03T08:05:09.534Z,69.87
2018-05-03T08:06:19.625Z,70.06
2018-05-03T08:07:29.730Z,69.87
2018-05-03T08:08:39.835Z,70.36
2018-05-03T08:09:49.930Z,70.94
2018-05-03T08:10:59.984Z,70.65
2018-05-03T08:12:10.097Z,70.65
2018-05-03T08:13:20.199Z,70.55
2018-05-03T08:14:30.296Z,70.49
2018-05-03T08:15:40.378Z,70.68
2018-05-03T08:16:50.512Z,70.78
2018-05-03T08:18:00.737Z,70.49
2018-05-03T08:19:10.857Z,70.58
2018-05-03T08:20:20.720Z,70.78
2018-05-03T08:21:30.812Z,70.29
2018-05-03T08:22:40.974Z,70.39
2018-05-03T08:23:51.071Z,70.1
2018-05-03T08:25:01.147Z,69.84
2018-05-03T08:26:10.982Z,70.62
2018-05-03T08:27:21.085Z,70.04
2018-05-03T08:28:31.077Z,70
2018-05-03T08:29:41.060Z,70.13
2018-05-03T08:30:51.160Z,70.42
2018-05-03T08:32:01.278Z,69.94
2018-05-03T08:33:11.378Z,70.04
2018-05-03T08:34:21.643Z,70.32
2018-05-03T08:35:31.190Z,69.97
2018-05-03T08:36:41.284Z,70.46
2018-05-03T08:37:51.364Z,70.46
2018-05-03T08:39:01.459Z,70.32
2018-05-03T08:40:11.596Z,70.04
2018-05-03T08:41:21.429Z,70.62
2018-05-03T08:42:31.531Z,70.42
2018-05-03T08:43:41.621Z,70.52
2018-05-03T08:44:51.470Z,71.01
2018-05-03T08:46:01.712Z,70.56
2018-05-03T08:47:11.813Z,69.97
2018-05-03T08:48:21.937Z,69.97
2018-05-03T08:49:31.483Z,70.17
2018-05-03T08:50:41.600Z,70.36
2018-05-03T08:51:51.713Z,70.07
2018-05-03T08:53:01.807Z,69.97
2018-05-03T08:54:11.637Z,69.97
2018-05-03T08:55:21.752Z,70.17
2018-05-03T08:56:32.028Z,69.87
2018-05-03T08:57:42.182Z,70.36
2018-05-03T08:58:52.012Z,70.65
2018-05-03T09:00:02.093Z,70.26
2018-05-03T09:01:12.180Z,70.07
2018-05-03T09:02:22.471Z,69.87
2018-05-03T09:03:32.555Z,70.2
2018-05-03T09:04:42.654Z,70.01
2018-05-03T09:05:52.756Z,70.59
2018-05-03T09:07:02.848Z,70.01
2018-05-03T09:08:12.943Z,70.5
2018-05-03T09:09:23.042Z,70.5
2018-05-03T09:10:33.168Z,70.1
2018-05-03T09:11:43.256Z,70.3
2018-05-03T09:12:53.083Z,70.01
2018-05-03T09:14:03.198Z,70.2
2018-05-03T09:15:13.601Z,70.68
2018-05-03T09:16:23.451Z,70.1
2018-05-03T09:17:33.565Z,71.11
2018-05-03T09:18:43.673Z,70.68
2018-05-03T09:19:53.791Z,70.4
2018-05-03T09:21:03.888Z,70.78
2018-05-03T09:22:13.970Z,70.78
2018-05-03T09:23:24.098Z,70.59
2018-05-03T09:24:34.204Z,70.59
2018-05-03T09:25:44.331Z,70.1
2018-05-03T09:26:54.160Z,70.1
2018-05-03T09:28:04.009Z,70.23
2018-05-03T09:29:14.098Z,70.14
2018-05-03T09:30:23.925Z,70.14
2018-05-03T09:31:34.014Z,70.23
2018-05-03T09:32:44.122Z,70.23
2018-05-03T09:33:53.707Z,70.14
2018-05-03T09:35:03.834Z,70.37
2018-05-03T09:36:13.931Z,70.27
2018-05-03T09:37:23.495Z,70.27
2018-05-03T09:38:33.317Z,70.27
2018-05-03T09:39:43.146Z,70.07
2018-05-03T09:40:53.246Z,70.56
2018-05-03T09:42:03.329Z,70.76
2018-05-03T09:43:13.171Z,70.95
2018-05-03T09:44:23.289Z,70.56
2018-05-03T09:45:33.573Z,70.47
2018-05-03T09:46:43.692Z,70.37
2018-05-03T09:47:53.783Z,70.66
2018-05-03T09:49:03.878Z,70.76
2018-05-03T09:50:14.055Z,70.56
2018-05-03T09:51:24.159Z,70.56
2018-05-03T09:52:34.398Z,71.05
2018-05-03T09:53:44.509Z,70.66
2018-05-03T09:54:54.607Z,70.86
2018-05-03T09:56:04.730Z,71.25
2018-05-03T09:57:14.826Z,70.66
2018-05-03T09:58:24.647Z,70.01
2018-05-03T09:59:34.739Z,70.6
2018-05-03T10:00:44.824Z,70.11
2018-05-03T10:01:54.663Z,70.4
2018-05-03T10:03:04.793Z,70.31
2018-05-03T10:04:14.895Z,70.31
2018-05-03T10:05:24.749Z,70.34
2018-05-03T10:06:34.852Z,70.73
2018-05-03T10:07:44.997Z,70.53
2018-05-03T10:08:55.089Z,70.24
2018-05-03T10:10:05.183Z,70.63
2018-05-03T10:11:15.010Z,70.14
2018-05-03T10:12:24.830Z,70.53
2018-05-03T10:13:34.640Z,70.34
2018-05-03T10:14:44.896Z,70.43
2018-05-03T10:15:54.986Z,70.47
2018-05-03T10:17:05.111Z,70.37
2018-05-03T10:18:15.203Z,70.73
2018-05-03T10:19:25.378Z,70.57
2018-05-03T10:20:34.960Z,70.28
2018-05-03T10:21:45.058Z,70.47
2018-05-03T10:22:54.864Z,70.76
2018-05-03T10:24:04.703Z,70.37
2018-05-03T10:25:14.595Z,70.37
2018-05-03T10:26:24.708Z,70.57
2018-05-03T10:27:34.542Z,70.28
2018-05-03T10:28:44.659Z,70.67
2018-05-03T10:29:54.338Z,70.51
2018-05-03T10:31:04.646Z,69.73
2018-05-03T10:32:14.743Z,69.76
2018-05-03T10:33:24.837Z,69.95
2018-05-03T10:34:34.670Z,70.15
2018-05-03T10:35:44.349Z,69.95
2018-05-03T10:36:54.200Z,70.18
2018-05-03T10:38:04.298Z,70.09
2018-05-03T10:39:14.376Z,69.95
2018-05-03T10:40:24.461Z,70.18
2018-05-03T10:41:34.620Z,70.09
2018-05-03T10:42:44.251Z,69.7
2018-05-03T10:43:54.098Z,69.89
2018-05-03T10:45:03.939Z,69.34
2018-05-03T10:46:13.769Z,69.04
2018-05-03T10:47:23.883Z,69.18
2018-05-03T10:48:33.740Z,69.57
2018-05-03T10:49:43.591Z,68.88
2018-05-03T10:50:53.408Z,68.91
2018-05-03T10:52:03.251Z,68.72
2018-05-03T10:53:13.367Z,68.65
2018-05-03T10:54:23.516Z,68.75
2018-05-03T10:55:33.327Z,68.59
2018-05-03T10:56:43.153Z,68.59
2018-05-03T10:57:53.246Z,68.69
2018-05-03T10:59:03.369Z,68.33
2018-05-03T11:00:13.500Z,68.76
2018-05-03T11:01:23.323Z,68.26
2018-05-03T11:02:33.160Z,68.1
2018-05-03T11:03:43.250Z,68.3
2018-05-03T11:04:53.053Z,68.43
2018-05-03T11:06:02.875Z,68.04
2018-05-03T11:07:12.975Z,68.37
2018-05-03T11:08:23.075Z,68.01
2018-05-03T11:09:33.172Z,67.71
2018-05-03T11:10:43.256Z,68.04
2018-05-03T11:11:53.381Z,67.45
2018-05-03T11:13:03.299Z,68.23
2018-05-03T11:14:13.144Z,68.63
2018-05-03T11:15:23.249Z,68.95
2018-05-03T11:16:33.366Z,69.71
2018-05-03T11:17:43.606Z,70.72
2018-05-03T11:18:53.442Z,70.48
2018-05-03T11:20:03.549Z,71.27
2018-05-03T11:21:13.651Z,71.4
2018-05-03T11:22:23.205Z,71.79
2018-05-03T11:23:33.299Z,72.02
2018-05-03T11:24:43.448Z,72.02
2018-05-03T11:25:53.676Z,72.37
2018-05-03T11:27:03.919Z,71.84
2018-05-03T11:28:14.019Z,71.2
2018-05-03T11:29:24.142Z,70.54
2018-05-03T11:30:34.331Z,70.74
2018-05-03T11:31:44.497Z,69.79
2018-05-03T11:32:54.618Z,70.09
2018-05-03T11:34:04.477Z,70.03
2018-05-03T11:35:14.612Z,69.93
2018-05-03T11:36:24.768Z,70.29
2018-05-03T11:37:34.598Z,70.09
2018-05-03T11:38:44.475Z,69.89
2018-05-03T11:39:54.585Z,70.09
2018-05-03T11:41:04.708Z,69.79
2018-05-03T11:42:14.816Z,69.54
2018-05-03T11:43:24.895Z,69.73
2018-05-03T11:44:34.998Z,69.24
2018-05-03T11:45:45.100Z,69.64
2018-05-03T11:46:54.993Z,69.27
2018-05-03T11:48:05.090Z,69.37
2018-05-03T11:49:15.003Z,69.37
2018-05-03T11:50:25.124Z,69.21
2018-05-03T11:51:35.222Z,69.41
2018-05-03T11:52:45.047Z,69.51
2018-05-03T11:53:54.898Z,69.51
2018-05-03T11:55:05.003Z,69.7
2018-05-03T11:56:15.181Z,69.41
2018-05-03T11:57:25.298Z,69.7
2018-05-03T11:58:35.162Z,71.04
2018-05-03T11:59:45.268Z,71.36
2018-05-03T12:00:55.378Z,71.23
2018-05-03T12:02:05.453Z,72.17
2018-05-03T12:03:15.026Z,71.65
2018-05-03T12:04:24.845Z,71.91
2018-05-03T12:05:34.952Z,71.51
2018-05-03T12:06:45.061Z,70.57
2018-05-03T12:13:36.056Z,69.67
2018-05-03T12:14:46.265Z,69.86
2018-05-03T12:15:56.363Z,69.86
2018-05-03T12:17:06.201Z,69.86
2018-05-03T12:18:16.309Z,69.86
2018-05-03T12:19:26.542Z,70.25
2018-05-03T12:20:36.636Z,70.15
2018-05-03T12:21:46.731Z,69.86
2018-05-03T12:22:56.310Z,69.76
2018-05-03T12:24:06.386Z,69.96
2018-05-03T12:25:16.230Z,69.67
2018-05-03T12:26:26.335Z,70.25
2018-05-03T12:27:36.169Z,70.35
2018-05-03T12:28:46.351Z,70.45
2018-05-03T12:29:56.180Z,70.64
2018-05-03T12:31:06.011Z,70.94
2018-05-03T12:32:15.847Z,70.74
2018-05-03T12:33:25.960Z,70.97
2018-05-03T12:34:36.054Z,70.48
2018-05-03T12:35:46.171Z,70.48
2018-05-03T12:36:56.011Z,70.39
2018-05-03T12:38:06.102Z,70.29
2018-05-03T12:39:16.207Z,70.78
2018-05-03T12:40:26.069Z,70.94
2018-05-03T12:41:35.901Z,70.74
2018-05-03T12:42:46.003Z,70.64
2018-05-03T12:43:56.110Z,70.74
2018-05-03T12:45:05.945Z,70.74
2018-05-03T12:46:16.110Z,70.64
2018-05-03T12:47:26.002Z,70.74
2018-05-03T12:48:35.827Z,70.74
2018-05-03T12:49:45.904Z,70.74
2018-05-03T12:50:56.008Z,70.54
2018-05-03T12:52:06.237Z,70.74
2018-05-03T12:53:16.356Z,70.45
2018-05-03T12:54:26.451Z,70.8
2018-05-03T12:55:36.573Z,70.54
2018-05-03T12:56:46.660Z,70.64
2018-05-03T12:57:56.746Z,70.74
2018-05-03T12:59:06.827Z,70.74
2018-05-03T13:00:16.934Z,70.74
2018-05-03T13:01:26.766Z,70.64
2018-05-03T13:02:36.867Z,70.61
2018-05-03T13:03:47.018Z,70.51
2018-05-03T13:04:57.114Z,70.51
2018-05-03T13:06:07.247Z,70.45
2018-05-03T13:07:16.824Z,70.74
2018-05-03T13:08:26.921Z,70.84
2018-05-03T13:09:36.767Z,70.7
2018-05-03T13:10:46.873Z,70.31
2018-05-03T13:11:56.975Z,70.84
2018-05-03T13:13:06.817Z,70.74
2018-05-03T13:14:17.085Z,70.84
2018-05-03T13:15:27.091Z,70.64
2018-05-03T13:16:37.185Z,70.97
2018-05-03T13:17:47.273Z,71.03
2018-05-03T13:18:57.379Z,70.78
2018-05-03T13:20:07.619Z,70.58
2018-05-03T13:21:17.880Z,70.78
2018-05-03T13:22:27.714Z,70.97
2018-05-03T13:23:37.818Z,70.58
2018-05-03T13:24:47.937Z,70.48
2018-05-03T13:25:58.051Z,70.39
2018-05-03T13:27:08.208Z,70.29
2018-05-03T13:28:18.292Z,70.48
2018-05-03T13:29:28.122Z,70.48
2018-05-03T13:30:38.262Z,70.32
2018-05-03T13:31:48.367Z,69.73
2018-05-03T13:32:58.251Z,70.12
2018-05-03T13:34:08.075Z,70.42
2018-05-03T13:35:18.176Z,70.12
2018-05-03T13:36:28.273Z,71
2018-05-03T13:37:38.107Z,70.9
2018-05-03T13:38:48.196Z,70.81
2018-05-03T13:39:58.288Z,71
2018-05-03T13:41:08.425Z,70.81
2018-05-03T13:42:18.725Z,70.81
2018-05-03T13:43:28.798Z,70.51
2018-05-03T13:44:39.036Z,70.51
2018-05-03T13:45:48.890Z,70.61
2018-05-03T13:46:59.022Z,70.81
2018-05-03T13:48:09.137Z,70.81
2018-05-03T13:49:19.247Z,70.81
2018-05-03T13:50:29.349Z,71
2018-05-03T13:51:39.445Z,70.81
2018-05-03T13:52:49.292Z,70.81
2018-05-03T13:53:59.395Z,70.81
2018-05-03T13:55:09.498Z,70.81
2018-05-03T13:56:19.711Z,70.51
2018-05-03T13:57:29.814Z,70.81
2018-05-03T13:58:39.904Z,71.11
2018-05-03T13:59:50.019Z,70.81
2018-05-03T14:01:00.117Z,71.11
2018-05-03T14:02:10.019Z,70.61
2018-05-03T14:03:20.111Z,70.81
2018-05-03T14:04:29.943Z,70.71
2018-05-03T14:05:39.510Z,70.51
2018-05-03T14:06:49.663Z,70.51
2018-05-03T14:07:59.841Z,70.81
2018-05-03T14:09:09.938Z,70.9
2018-05-03T14:10:20.062Z,70.51
2018-05-03T14:11:30.166Z,70.51
2018-05-03T14:12:40.268Z,70.68
2018-05-03T14:13:50.360Z,70.71
2018-05-03T14:15:00.494Z,70.71
2018-05-03T14:16:10.361Z,70.68
2018-05-03T14:17:20.194Z,70.51
2018-05-03T14:18:30.324Z,70.42
2018-05-03T14:19:40.208Z,70.81
2018-05-03T14:20:50.366Z,70.48
2018-05-03T14:22:00.516Z,70.81
2018-05-03T14:23:10.611Z,70.78
2018-05-03T14:24:20.727Z,70.78
2018-05-03T14:25:30.608Z,70.58
2018-05-03T14:26:40.458Z,70.48
2018-05-03T14:27:50.581Z,70.48
2018-05-03T14:29:00.697Z,70.58
2018-05-03T14:30:10.262Z,70.81
2018-05-03T14:31:20.371Z,70.81
2018-05-03T14:32:30.458Z,70.61
2018-05-03T14:33:40.295Z,70.42
2018-05-03T14:34:50.396Z,71
2018-05-03T14:36:00.496Z,71
2018-05-03T14:37:10.645Z,70.61
2018-05-03T14:38:20.745Z,70.51
2018-05-03T14:39:30.824Z,70.51
2018-05-03T14:40:40.916Z,70.61
2018-05-03T14:41:50.995Z,70.61
2018-05-03T14:43:00.867Z,71
2018-05-03T14:44:11.216Z,70.71
2018-05-03T14:45:21.314Z,71
2018-05-03T14:46:31.424Z,71.4
2018-05-03T14:47:41.513Z,71.59
2018-05-03T14:48:51.126Z,71.2
2018-05-03T14:50:01.233Z,71
2018-05-03T14:51:11.061Z,71.2
2018-05-03T14:52:21.156Z,71.3
2018-05-03T14:53:31.003Z,70.9
2018-05-03T14:54:40.832Z,70.51
2018-05-03T14:55:50.953Z,70.51
2018-05-03T14:57:01.137Z,70.51
2018-05-03T14:58:10.983Z,70.71
2018-05-03T14:59:21.096Z,71
2018-05-03T15:00:31.210Z,71.11
2018-05-03T15:01:41.036Z,70.81
2018-05-03T15:02:51.145Z,70.61
2018-05-03T15:04:01.237Z,70.94
2018-05-03T15:05:11.084Z,70.75
2018-05-03T15:06:21.246Z,70.84
2018-05-03T15:07:31.365Z,71.17
2018-05-03T15:08:41.469Z,70.29
2018-05-03T15:09:51.572Z,70.09
2018-05-03T15:11:01.409Z,70.42
2018-05-03T15:12:11.641Z,70.23
2018-05-03T15:13:21.747Z,70.03
2018-05-03T15:14:31.827Z,69.93
2018-05-03T15:15:41.935Z,70.23
2018-05-03T15:16:51.777Z,70.23
2018-05-03T15:18:01.620Z,70.32
2018-05-03T15:19:11.739Z,70.13
2018-05-03T15:20:21.820Z,69.84
2018-05-03T15:21:31.929Z,70.62
2018-05-03T15:22:42.048Z,71.01
2018-05-03T15:23:52.269Z,71.21
2018-05-03T15:25:02.381Z,70.88
2018-05-03T15:26:12.483Z,70.59
2018-05-03T15:27:22.587Z,70.78
2018-05-03T15:28:32.458Z,71.47
2018-05-03T15:29:42.546Z,70.98
2018-05-03T15:30:52.665Z,71.62
2018-05-03T15:32:02.765Z,72.08
2018-05-03T15:33:12.867Z,71.89
2018-05-03T15:34:22.713Z,72.74
2018-05-03T15:35:32.883Z,72.44
2018-05-03T15:36:42.707Z,72.7
2018-05-03T15:37:52.817Z,73.09
2018-05-03T15:39:02.666Z,72.6
2018-05-03T15:40:12.514Z,72.02
2018-05-03T15:41:22.622Z,72.7
2018-05-03T15:42:32.487Z,72.66